Etusivu
METAR-TAF:

METAR-TAF

Lentoasemat :

Goshen Municipal Airport

Goshen, Indiana, Yhdysvallat

Leveyspiiri: 41-31-34N, Pituuspiiri: 085-47-12W, korkeus merenpinnasta: 252 m

Tämänhetkinen sää

Tämä raportti tehtiin 27 minuuttia sitten, kello 04.21 UTC
Tuuli 20 kn lännestä puuskistuen 34 kn:hen
Lämpötila -9°C
Kosteus 73%
Ilmanpaine 1014 hPa
Näkyvyys: 6.4 km
Pilvistä 2000 ft:n korkeudessa
heikkoa lumisadetta

METAR: KGSH 190421Z AUTO 27020G34KT 4SM -SN OVC020 M09/M13 A2993 RMK AO2 PK WND 26034/0415 P0000 T10941133

Aika: 23:48 (04:48 UTC)


TAF: puuttuu

Säähavainnot ja -ennusteet yli 4000 lentoasemalta (METAR- ja TAF-raportit).

Käytössä olevat sääasemat on merkitty karttaan keltaisilla ja punaisilla pisteillä.

Aseta hiiri pisteen päälle nähdäksesi sääaseman nimen.

Klikkaa sitten nähdäksesi säähavainnot ja -ennusteet.

Kartan vaihtaminen: klikkaa mustalla rastilla varustettuja vihreitä pisteitä, niin voit zoomata sisään; viivalla varustettua vihreää pistettä, niin voit zoomata ulos tai vihreitä nuolia, niin pääset viereisille kartoille.


METAR-TAF: